Austin, Texas
Traffic Map
Current Weather Conditions
Austin, Texas
Clear
Clear
80°
Feels Like: 80°
Wind Chill: 80° Ceiling: Unl
Heat Index: 80° Visibility: 10mi
Dew Point: 39° Wind: 12mph
Humidity: 23% Direction: 260° (W)
Pressure: 29.54in Gusts: 22mph
Raw Report DataKATT 232151Z AUTO 26010G19KT 10SM CLR 27/04 A2954 RMK AO2 SLP994 T02670039
Traffic Incident Summary
Active as of:
Severity:
Category:
InformationThere was an issue retrieving the traffic information for this location. Please try a different location or try again shortly.
Advertisements
Track Severe Weather on mobile